Airfield :
LOGIN :

Register | Disclaimer

   EN    FR    IT 

 










Legend :    VFR   Marginal VFR   IFR   Intensive IFR   Very Intensive IFR
Visi :
Ceiling :
>= 8 km
>= 3000ft
5 to 8 km
1000 to 3000 ft
1500m to 5 km
500 to 1000 ft
800 to 1500m
200 to 500 ft
< 800m
< 200 ft
Symbols :   Thunderstorms  Fog  Heavy snow  Heavy precipitations  Wind > 20 kt
SIGMETs :     Misc.  Thunderstorms  Icing  Turbulence  Mountain Waves  Volcanic Ashes






- Airport Elevation : 56 ft
- IATA code : ODE


EKOD - Odense

CURRENT METAR :
  • 250250Z AUTO 12002KT 1900 BR NCD 12/12 Q1020

EXPIRED METARs :
  • 250220Z AUTO 08001KT 1400 BR NCD 12/11 Q1020
  • 250150Z AUTO 09003KT 7000 NCD 12/12 Q1020
  • 250120Z AUTO 07002KT 9999 NCD 13/12 Q1020
  • 250050Z AUTO VRB01KT 9999 NCD 12/12 Q1020
  • 250020Z AUTO 19002KT 9000 NCD 12/11 Q1020
  • 242350Z AUTO 19002KT 9999 NCD 13/12 Q1021
  • 242320Z AUTO 12002KT 9999 NCD 14/13 Q1021
  • 242250Z AUTO 17002KT 9999 NCD 13/13 Q1021
  • 242150Z AUTO 13003KT 9999 NCD 15/12 Q1021

Expired Forecast.



MET'MAP, your aeronautical weather chart ! - Copyright ORBIFLY December 2007 - Disclaimer

ORBIFLY MET'MAP TEAM :

Programming & Development : Alexandra Zaïnal
Original concept : Baudouin d'Aumeries
Technical & hardware support : Manuel Goepfert
Assistance : Marc-Olivier Méhu




SOURCES & CREDITS :

   NOAA